Sukran S — TCKB — position and weather

sailwx.info

Track history (hours):
 
Tides and Currents Weather Stations Pressure Air Temp Water Temp Dewpoint Dewpoint Depression Visibility Wind Speed Wind Dir Waves Ship Positions

Sukran S

Last reported at 2016-May-02 14:29 UTC. Time now 2016-May-06 07:27 UTC.
Position N 31°23' E 030°06'.

Length 108 m; draft 7.3 m.

Type: Ship. MMSI: 271000056.

Date/timePositionNaut miles runAvg speedWind from/ knotsBaromVisibWave heightAir tempDewpointWater temp
2016-May-02 14:29N 31°23' E 030°06'0 0.0
2016-May-02 13:07N 31°23' E 030°06'0 0.0
2016-May-02 04:19N 31°23' E 030°06'  
2016-Apr-29 12:27N 31°23' E 030°06'0 0.0
2016-Apr-28 22:33N 31°23' E 030°06'  
2016-Apr-24 19:28N 40°58' E 028°54'329 7.4
2016-Apr-22 23:12N 46°15' E 030°54'6 8.5
2016-Apr-22 22:31N 46°21' E 030°55'8 8.4
2016-Apr-22 21:33N 46°29' E 030°56'7 6.7
2016-Apr-22 20:33N 46°34' E 031°02'18 8.1
2016-Apr-22 18:22N 46°35' E 031°28'6 7.3
2016-Apr-22 17:33N 46°35' E 031°36'8 8.0
2016-Apr-22 16:33N 46°36' E 031°48'9 8.9
2016-Apr-22 15:33N 46°33' E 032°00'9 8.3
2016-Apr-22 14:29N 46°33' E 032°13'  
Track history (hours):
 
Tides and Currents Weather Stations Pressure Air Temp Water Temp Dewpoint Dewpoint Depression Visibility Wind Speed Wind Dir Waves Ship Positions

Sukran S

Last reported at 2016-May-02 14:29 UTC. Time now 2016-May-06 07:27 UTC.
Position N 31°23' E 030°06'.

Length 108 m; draft 7.3 m.

Type: Ship. MMSI: 271000056.

Date/timePositionNaut miles runAvg speedWind from/ knotsBaromVisibWave heightAir tempDewpointWater temp
2016-May-02 14:29N 31°23' E 030°06'0 0.0
2016-May-02 13:07N 31°23' E 030°06'0 0.0
2016-May-02 04:19N 31°23' E 030°06'  
2016-Apr-29 12:27N 31°23' E 030°06'0 0.0
2016-Apr-28 22:33N 31°23' E 030°06'  
2016-Apr-24 19:28N 40°58' E 028°54'329 7.4
2016-Apr-22 23:12N 46°15' E 030°54'6 8.5
2016-Apr-22 22:31N 46°21' E 030°55'8 8.4
2016-Apr-22 21:33N 46°29' E 030°56'7 6.7
2016-Apr-22 20:33N 46°34' E 031°02'18 8.1
2016-Apr-22 18:22N 46°35' E 031°28'6 7.3
2016-Apr-22 17:33N 46°35' E 031°36'8 8.0
2016-Apr-22 16:33N 46°36' E 031°48'9 8.9
2016-Apr-22 15:33N 46°33' E 032°00'9 8.3
2016-Apr-22 14:29N 46°33' E 032°13'  

Dump ship's entire track history